Time;durP1;ratioP1;P1;durP2;ratioP2;P2;SDS_P1;SDS_P2;PMS_P1;PMS_P2;Temp;Humidity;BMP_temperature;BMP_pressure;BME280_temperature;BME280_humidity;BME280_pressure;Samples;Min_cycle;Max_cycle;Signal;HPM_P1;HPM_P2
2021/12/21 00:02:14;;;;;;;5.72;2.17;;;;;;;;;;5109082;28;20084;-73
2021/12/21 00:04:40;;;;;;;6.97;2.00;;;;;;;;;;5112907;28;20035;-73
2021/12/21 00:07:06;;;;;;;8.13;2.13;;;;;;;;;;5101037;28;20077;-74
2021/12/21 00:09:32;;;;;;;6.00;2.75;;;;;;;;;;5105402;28;20024;-74
2021/12/21 00:12:00;;;;;;;4.28;2.25;;;;;;;;;;5110638;28;20050;-74
2021/12/21 00:15:20;;;;;;;10.07;2.72;;;;;;;;;;5106216;28;20040;-74
2021/12/21 00:17:31;;;;;;;6.55;2.60;;;;;;;;;;5107041;28;20043;-75
2021/12/21 00:25:01;;;;;;;7.28;2.15;;;;;;;;;;5106136;28;20668;-74
2021/12/21 00:27:27;;;;;;;13.27;4.10;;;;;;;;;;5109654;28;20485;-74
2021/12/21 00:29:53;;;;;;;11.27;2.40;;;;;;;;;;5103713;28;20386;-75
2021/12/21 00:32:19;;;;;;;44.65;13.68;;;;;;;;;;5109969;28;20032;-75
2021/12/21 00:34:45;;;;;;;63.35;17.15;;;;;;;;;;5106412;28;20085;-75
2021/12/21 00:37:11;;;;;;;59.28;19.10;;;;;;;;;;5100309;28;20482;-74
2021/12/21 00:39:37;;;;;;;44.45;13.77;;;;;;;;;;5106485;28;20036;-75
2021/12/21 00:42:03;;;;;;;35.22;12.50;;;;;;;;;;5103083;28;20040;-76
2021/12/21 00:44:29;;;;;;;19.45;7.82;;;;;;;;;;5104213;28;20043;-74
2021/12/21 00:46:56;;;;;;;19.55;6.72;;;;;;;;;;5110045;28;20044;-75
2021/12/21 00:49:23;;;;;;;22.83;7.35;;;;;;;;;;5106122;28;20032;-76
2021/12/21 00:51:49;;;;;;;105.97;29.67;;;;;;;;;;5113354;28;20038;-76
2021/12/21 00:54:16;;;;;;;115.15;32.45;;;;;;;;;;5104620;28;20077;-75
2021/12/21 00:56:42;;;;;;;123.50;34.92;;;;;;;;;;5110089;28;20028;-75
2021/12/21 00:59:08;;;;;;;39.33;11.07;;;;;;;;;;5103447;28;20055;-76
2021/12/21 01:01:35;;;;;;;28.88;9.50;;;;;;;;;;5107095;28;20043;-75
2021/12/21 01:04:03;;;;;;;23.75;6.95;;;;;;;;;;5105883;28;20031;-75
2021/12/21 01:11:45;;;;;;;13.48;4.50;;;;;;;;;;5101228;28;20044;-74
2021/12/21 01:16:48;;;;;;;14.55;5.00;;;;;;;;;;5104392;28;20048;-75
2021/12/21 01:19:19;;;;;;;10.05;4.40;;;;;;;;;;5111089;28;20043;-75
2021/12/21 01:27:39;;;;;;;13.38;3.72;;;;;;;;;;5062557;28;20584;-76
2021/12/21 01:30:29;;;;;;;6.35;3.38;;;;;;;;;;5057296;28;20386;-75
2021/12/21 01:33:17;;;;;;;13.88;3.75;;;;;;;;;;5067543;28;20035;-74
2021/12/21 01:35:47;;;;;;;9.95;4.20;;;;;;;;;;5061323;28;20038;-75
2021/12/21 01:40:52;;;;;;;10.13;3.58;;;;;;;;;;5065201;28;20036;-75
2021/12/21 01:51:18;;;;;;;6.45;2.78;;;;;;;;;;5061036;28;20052;-75
2021/12/21 01:53:45;;;;;;;10.38;3.55;;;;;;;;;;5064564;28;20433;-75
2021/12/21 01:56:11;;;;;;;9.07;3.22;;;;;;;;;;5061746;28;20032;-75
2021/12/21 01:58:39;;;;;;;12.18;3.50;;;;;;;;;;5069516;28;20537;-75
2021/12/21 02:01:06;;;;;;;7.30;4.45;;;;;;;;;;5063524;28;20032;-75
2021/12/21 02:03:33;;;;;;;11.48;3.53;;;;;;;;;;5064963;28;20535;-75
2021/12/21 02:05:59;;;;;;;7.85;3.33;;;;;;;;;;5059317;28;20033;-75
2021/12/21 02:08:25;;;;;;;3.88;2.38;;;;;;;;;;5063234;28;20199;-75
2021/12/21 02:10:51;;;;;;;11.48;3.13;;;;;;;;;;5061952;28;20025;-75
2021/12/21 02:13:17;;;;;;;11.35;3.40;;;;;;;;;;5068443;28;20032;-75
2021/12/21 02:15:43;;;;;;;13.07;3.40;;;;;;;;;;5059551;28;20089;-75
2021/12/21 02:20:56;;;;;;;12.30;3.22;;;;;;;;;;5063046;28;20044;-75
2021/12/21 02:23:32;;;;;;;6.90;3.22;;;;;;;;;;5080855;28;20085;-75
2021/12/21 02:31:08;;;;;;;9.95;2.95;;;;;;;;;;5105296;28;20043;-78
2021/12/21 02:33:35;;;;;;;10.88;3.08;;;;;;;;;;5102295;28;20039;-76
2021/12/21 02:36:01;;;;;;;32.90;13.68;;;;;;;;;;5107330;28;20030;-77
2021/12/21 02:38:28;;;;;;;8.57;4.18;;;;;;;;;;5101727;28;20059;-76
2021/12/21 02:40:54;;;;;;;6.43;2.83;;;;;;;;;;5108634;28;20031;-78
2021/12/21 02:43:21;;;;;;;9.20;3.45;;;;;;;;;;5098006;28;20553;-78
2021/12/21 02:45:47;;;;;;;8.15;3.08;;;;;;;;;;5104563;28;20450;-75
2021/12/21 02:48:13;;;;;;;12.27;3.22;;;;;;;;;;5105511;28;20024;-75
2021/12/21 02:50:40;;;;;;;7.97;2.50;;;;;;;;;;5101493;28;20108;-74
2021/12/21 02:53:06;;;;;;;6.50;2.95;;;;;;;;;;5097354;28;20053;-74
2021/12/21 02:55:32;;;;;;;7.22;2.67;;;;;;;;;;5106208;28;20484;-75
2021/12/21 02:57:59;;;;;;;6.57;2.58;;;;;;;;;;5104214;28;20108;-74
2021/12/21 03:00:26;;;;;;;8.55;3.10;;;;;;;;;;5103413;28;20502;-74
2021/12/21 03:02:53;;;;;;;12.57;2.95;;;;;;;;;;5103270;28;20489;-74
2021/12/21 03:05:19;;;;;;;7.72;2.83;;;;;;;;;;5099816;28;20020;-75
2021/12/21 03:10:14;;;;;;;5.10;2.50;;;;;;;;;;5100558;28;20081;-74
2021/12/21 03:15:25;;;;;;;12.25;3.25;;;;;;;;;;5099657;28;20032;-73
2021/12/21 03:17:52;;;;;;;4.40;2.33;;;;;;;;;;5101080;28;20036;-74
2021/12/21 03:20:18;;;;;;;6.47;2.40;;;;;;;;;;5111572;28;20020;-74
2021/12/21 03:22:44;;;;;;;11.43;2.38;;;;;;;;;;5106207;28;20028;-74
2021/12/21 03:25:11;;;;;;;9.57;3.85;;;;;;;;;;5105021;28;20534;-74
2021/12/21 03:27:37;;;;;;;8.18;2.55;;;;;;;;;;5104682;28;20378;-74
2021/12/21 03:30:05;;;;;;;7.25;2.90;;;;;;;;;;5102638;28;20099;-75
2021/12/21 03:32:31;;;;;;;12.50;2.83;;;;;;;;;;5100808;28;20032;-74
2021/12/21 03:34:57;;;;;;;14.07;2.90;;;;;;;;;;5106113;27;20031;-74
2021/12/21 03:37:23;;;;;;;11.20;2.90;;;;;;;;;;5109835;28;20035;-74
2021/12/21 03:39:51;;;;;;;9.05;2.78;;;;;;;;;;5106501;28;20041;-74
2021/12/21 03:42:19;;;;;;;10.43;2.72;;;;;;;;;;5112124;28;20411;-73
2021/12/21 03:44:47;;;;;;;6.82;2.60;;;;;;;;;;5104807;28;20042;-73
2021/12/21 03:47:15;;;;;;;6.95;2.65;;;;;;;;;;5100711;28;20070;-73
2021/12/21 03:52:12;;;;;;;11.70;2.60;;;;;;;;;;5105907;28;20028;-73
2021/12/21 03:54:39;;;;;;;6.32;2.30;;;;;;;;;;5100841;28;20498;-73
2021/12/21 03:57:05;;;;;;;8.00;2.42;;;;;;;;;;5113712;28;20028;-73
2021/12/21 03:59:32;;;;;;;7.40;2.83;;;;;;;;;;5106862;28;20027;-73
2021/12/21 04:01:58;;;;;;;8.00;2.30;;;;;;;;;;5103932;28;20196;-73
2021/12/21 04:04:25;;;;;;;6.05;3.00;;;;;;;;;;5107531;28;20035;-73
2021/12/21 04:06:51;;;;;;;4.63;1.83;;;;;;;;;;5109611;28;20034;-73
2021/12/21 04:09:18;;;;;;;6.00;2.53;;;;;;;;;;5107777;28;20450;-73
2021/12/21 04:11:44;;;;;;;4.65;2.20;;;;;;;;;;5108989;28;20027;-73
2021/12/21 04:14:10;;;;;;;14.25;2.92;;;;;;;;;;5092783;28;20347;-74
2021/12/21 04:16:36;;;;;;;6.55;2.70;;;;;;;;;;5103691;28;20415;-73
2021/12/21 04:19:03;;;;;;;12.05;3.22;;;;;;;;;;5107463;28;20044;-73
2021/12/21 04:21:30;;;;;;;4.43;2.00;;;;;;;;;;5105722;28;20040;-73
2021/12/21 04:23:56;;;;;;;7.25;2.30;;;;;;;;;;5100299;28;20517;-73
2021/12/21 04:26:22;;;;;;;6.10;2.38;;;;;;;;;;5103464;28;20020;-73
2021/12/21 04:28:49;;;;;;;7.10;2.03;;;;;;;;;;5105195;28;20386;-73
2021/12/21 04:31:15;;;;;;;7.20;2.40;;;;;;;;;;5104661;28;20051;-73
2021/12/21 04:33:44;;;;;;;7.75;2.42;;;;;;;;;;5097627;28;20443;-73
2021/12/21 04:36:11;;;;;;;7.25;2.13;;;;;;;;;;5105869;28;20050;-73
2021/12/21 04:38:41;;;;;;;10.40;2.78;;;;;;;;;;5110444;28;20054;-73
2021/12/21 04:41:16;;;;;;;4.38;2.05;;;;;;;;;;5097627;28;20028;-73
2021/12/21 04:43:42;;;;;;;9.90;2.78;;;;;;;;;;5100386;28;20042;-73
2021/12/21 04:46:09;;;;;;;3.17;2.00;;;;;;;;;;5105297;28;20035;-74
2021/12/21 04:48:35;;;;;;;7.40;2.78;;;;;;;;;;5100740;28;20020;-74
2021/12/21 04:51:01;;;;;;;20.45;3.58;;;;;;;;;;5103706;28;20041;-73
2021/12/21 04:53:27;;;;;;;9.73;2.97;;;;;;;;;;5100758;28;20031;-74
2021/12/21 04:55:53;;;;;;;13.07;2.75;;;;;;;;;;5110989;28;20076;-73
2021/12/21 04:58:19;;;;;;;7.30;2.22;;;;;;;;;;5104401;28;20058;-74
2021/12/21 05:00:46;;;;;;;12.30;3.38;;;;;;;;;;5111232;28;20043;-73
2021/12/21 05:03:12;;;;;;;4.85;2.25;;;;;;;;;;5103140;28;20134;-74
2021/12/21 05:05:38;;;;;;;6.38;2.30;;;;;;;;;;5112786;28;20036;-74
2021/12/21 05:08:12;;;;;;;3.85;2.22;;;;;;;;;;5107868;28;20414;-74
2021/12/21 05:10:47;;;;;;;9.35;2.60;;;;;;;;;;5107919;28;20430;-74
2021/12/21 05:13:13;;;;;;;7.43;2.70;;;;;;;;;;5098180;28;20039;-74
2021/12/21 05:15:40;;;;;;;9.43;3.20;;;;;;;;;;5102900;28;20040;-74
2021/12/21 05:18:06;;;;;;;9.32;3.05;;;;;;;;;;5107790;28;20024;-74
2021/12/21 05:20:32;;;;;;;9.38;2.88;;;;;;;;;;5104734;28;20123;-73
2021/12/21 05:22:58;;;;;;;6.75;2.47;;;;;;;;;;5105285;28;20370;-74
2021/12/21 05:25:24;;;;;;;6.20;2.20;;;;;;;;;;5105175;28;20201;-74
2021/12/21 05:27:50;;;;;;;8.68;2.95;;;;;;;;;;5104148;28;20040;-74
2021/12/21 05:30:16;;;;;;;10.05;3.47;;;;;;;;;;5103589;28;20032;-74
2021/12/21 05:32:42;;;;;;;11.00;3.58;;;;;;;;;;5102325;28;20101;-74
2021/12/21 05:35:10;;;;;;;9.15;2.85;;;;;;;;;;5103117;28;20065;-74
2021/12/21 05:37:39;;;;;;;8.10;3.45;;;;;;;;;;5108067;28;20035;-74
2021/12/21 05:40:14;;;;;;;8.07;3.85;;;;;;;;;;5104289;28;20028;-74
2021/12/21 05:42:40;;;;;;;9.93;3.22;;;;;;;;;;5092655;28;20035;-75
2021/12/21 05:45:07;;;;;;;9.30;3.72;;;;;;;;;;5100210;28;20087;-75
2021/12/21 05:47:33;;;;;;;9.65;3.42;;;;;;;;;;5107089;28;20051;-75
2021/12/21 05:50:00;;;;;;;11.60;3.53;;;;;;;;;;5100324;28;20027;-75
2021/12/21 05:52:26;;;;;;;12.77;3.90;;;;;;;;;;5103946;28;20032;-75
2021/12/21 05:54:52;;;;;;;7.78;3.30;;;;;;;;;;5101848;28;20028;-75
2021/12/21 05:57:18;;;;;;;17.13;4.45;;;;;;;;;;5110071;28;20046;-75
2021/12/21 05:59:44;;;;;;;10.90;4.30;;;;;;;;;;5102075;28;20123;-75
2021/12/21 06:02:10;;;;;;;8.27;3.60;;;;;;;;;;5104852;28;20044;-77
2021/12/21 06:04:36;;;;;;;7.95;4.20;;;;;;;;;;5101009;28;20466;-76
2021/12/21 06:07:02;;;;;;;8.77;3.88;;;;;;;;;;5093579;28;20027;-77
2021/12/21 06:09:30;;;;;;;10.23;4.80;;;;;;;;;;5102934;28;20035;-77
2021/12/21 06:14:48;;;;;;;13.07;6.45;;;;;;;;;;5098441;28;20044;-78
2021/12/21 06:27:40;;;;;;;13.40;5.20;;;;;;;;;;5094112;28;20040;-77
2021/12/21 06:30:06;;;;;;;15.80;4.80;;;;;;;;;;5101590;28;20031;-77
2021/12/21 06:32:32;;;;;;;16.08;5.45;;;;;;;;;;5098765;28;20044;-77
2021/12/21 06:34:58;;;;;;;15.10;5.53;;;;;;;;;;5092292;28;20049;-77
2021/12/21 06:37:24;;;;;;;13.95;5.22;;;;;;;;;;5096256;28;20117;-77
2021/12/21 06:39:51;;;;;;;11.38;5.03;;;;;;;;;;5097931;28;20405;-76
2021/12/21 06:42:17;;;;;;;14.23;5.20;;;;;;;;;;5110655;28;20599;-76
2021/12/21 06:44:45;;;;;;;10.98;5.43;;;;;;;;;;5098252;28;20035;-77
2021/12/21 06:52:23;;;;;;;13.40;6.68;;;;;;;;;;5100389;28;20054;-78
2021/12/21 06:54:49;;;;;;;21.42;6.05;;;;;;;;;;5104060;28;20486;-77
2021/12/21 06:57:15;;;;;;;16.95;5.55;;;;;;;;;;5099419;28;20031;-77
2021/12/21 06:59:41;;;;;;;14.05;5.93;;;;;;;;;;5101068;28;20038;-76
2021/12/21 07:02:08;;;;;;;14.32;6.57;;;;;;;;;;5096872;28;20039;-77
2021/12/21 07:04:34;;;;;;;16.38;6.25;;;;;;;;;;5101022;28;20035;-77
2021/12/21 07:07:00;;;;;;;15.32;6.85;;;;;;;;;;5108106;28;20032;-77
2021/12/21 07:09:40;;;;;;;9.55;5.55;;;;;;;;;;5098196;28;20155;-77
2021/12/21 07:18:06;;;;;;;14.00;6.30;;;;;;;;;;5097506;28;20093;-78
2021/12/21 07:20:21;;;;;;;14.52;5.97;;;;;;;;;;5098194;28;20043;-74
2021/12/21 07:22:47;;;;;;;13.82;6.43;;;;;;;;;;5093817;28;20036;-77
2021/12/21 07:25:13;;;;;;;21.95;9.45;;;;;;;;;;5101700;28;20024;-77
2021/12/21 07:27:39;;;;;;;18.25;8.45;;;;;;;;;;5104156;28;20567;-76
2021/12/21 07:30:06;;;;;;;16.73;6.07;;;;;;;;;;5098197;28;20645;-76
2021/12/21 07:32:32;;;;;;;12.20;5.80;;;;;;;;;;5097757;28;20019;-75
2021/12/21 07:34:58;;;;;;;10.32;5.57;;;;;;;;;;5102938;28;20036;-75
2021/12/21 07:37:25;;;;;;;16.00;7.22;;;;;;;;;;5109969;28;20038;-74
2021/12/21 07:39:51;;;;;;;24.15;7.15;;;;;;;;;;5101392;28;20063;-74
2021/12/21 07:42:18;;;;;;;19.45;7.18;;;;;;;;;;5102331;28;20087;-75
2021/12/21 07:44:44;;;;;;;17.83;8.45;;;;;;;;;;5101954;28;20034;-74
2021/12/21 07:47:10;;;;;;;26.67;10.68;;;;;;;;;;5094975;28;20413;-75
2021/12/21 07:49:36;;;;;;;27.42;11.73;;;;;;;;;;5099692;28;20439;-75
2021/12/21 07:52:07;;;;;;;20.52;11.52;;;;;;;;;;5109741;28;20062;-76
2021/12/21 07:54:33;;;;;;;25.05;12.10;;;;;;;;;;5099453;28;20019;-75
2021/12/21 07:56:59;;;;;;;28.77;16.05;;;;;;;;;;5096178;28;21255;-75
2021/12/21 07:59:26;;;;;;;31.67;15.38;;;;;;;;;;5099889;28;20067;-75
2021/12/21 08:01:53;;;;;;;40.13;19.00;;;;;;;;;;5097889;28;20454;-75
2021/12/21 08:04:21;;;;;;;33.80;15.70;;;;;;;;;;5104405;28;20115;-75
2021/12/21 08:06:49;;;;;;;30.52;15.82;;;;;;;;;;5103007;28;20076;-75
2021/12/21 08:09:15;;;;;;;22.92;11.23;;;;;;;;;;5078977;28;20020;-75
2021/12/21 08:14:08;;;;;;;21.45;11.38;;;;;;;;;;5098398;28;20039;-75
2021/12/21 08:16:34;;;;;;;23.25;11.63;;;;;;;;;;5102230;28;20043;-75
2021/12/21 08:19:00;;;;;;;34.35;10.32;;;;;;;;;;5103044;28;20042;-75
2021/12/21 08:21:26;;;;;;;15.15;8.65;;;;;;;;;;5108416;28;20027;-75
2021/12/21 08:23:53;;;;;;;16.33;8.52;;;;;;;;;;5099059;28;20040;-75
2021/12/21 08:26:19;;;;;;;19.30;7.65;;;;;;;;;;5104342;28;20118;-75
2021/12/21 08:28:45;;;;;;;19.90;10.35;;;;;;;;;;5103871;28;20035;-75
2021/12/21 08:31:12;;;;;;;26.98;15.05;;;;;;;;;;5110214;28;20053;-75
2021/12/21 08:33:38;;;;;;;36.08;17.35;;;;;;;;;;5103584;28;20097;-75
2021/12/21 08:36:05;;;;;;;56.88;25.65;;;;;;;;;;5113256;28;20035;-75
2021/12/21 08:38:32;;;;;;;45.97;20.60;;;;;;;;;;5103972;28;20035;-75
2021/12/21 08:41:00;;;;;;;30.52;16.45;;;;;;;;;;5112787;28;20120;-75
2021/12/21 08:43:28;;;;;;;33.92;14.63;;;;;;;;;;5101736;28;20035;-74
2021/12/21 08:45:56;;;;;;;34.30;17.50;;;;;;;;;;5102394;28;20096;-75
2021/12/21 08:48:22;;;;;;;45.90;23.45;;;;;;;;;;5103411;28;20479;-75
2021/12/21 08:50:49;;;;;;;35.97;21.25;;;;;;;;;;5108591;28;20055;-75
2021/12/21 08:53:16;;;;;;;36.63;17.67;;;;;;;;;;5107505;28;20027;-75
2021/12/21 08:55:42;;;;;;;22.35;13.27;;;;;;;;;;5103191;28;20035;-75
2021/12/21 08:58:09;;;;;;;46.78;23.20;;;;;;;;;;5104601;28;20051;-75
2021/12/21 09:00:35;;;;;;;64.03;31.83;;;;;;;;;;5101868;28;20031;-75
2021/12/21 09:03:01;;;;;;;93.82;44.72;;;;;;;;;;5097674;28;20039;-76
2021/12/21 09:05:30;;;;;;;69.03;37.17;;;;;;;;;;5104323;28;20029;-75
2021/12/21 09:07:56;;;;;;;88.00;33.63;;;;;;;;;;5111805;28;20024;-75
2021/12/21 09:10:23;;;;;;;65.95;25.20;;;;;;;;;;5104380;28;20051;-74
2021/12/21 09:12:50;;;;;;;32.22;12.90;;;;;;;;;;5108604;28;20032;-75
2021/12/21 09:15:16;;;;;;;25.08;12.38;;;;;;;;;;5106241;28;20470;-76
2021/12/21 09:17:44;;;;;;;112.28;32.20;;;;;;;;;;5107377;28;20040;-76
2021/12/21 09:20:12;;;;;;;35.15;17.48;;;;;;;;;;5104763;28;20042;-76
2021/12/21 09:22:39;;;;;;;43.63;18.10;;;;;;;;;;5109270;28;20401;-76
2021/12/21 09:25:05;;;;;;;58.17;21.83;;;;;;;;;;5106424;28;20520;-75
2021/12/21 09:27:31;;;;;;;69.00;30.02;;;;;;;;;;5106079;28;20474;-75
2021/12/21 09:29:57;;;;;;;66.47;27.45;;;;;;;;;;5105828;28;20046;-75
2021/12/21 09:32:23;;;;;;;51.67;23.30;;;;;;;;;;5100493;28;20036;-75
2021/12/21 09:34:49;;;;;;;36.67;16.95;;;;;;;;;;5102636;28;20043;-75
2021/12/21 09:37:19;;;;;;;32.08;16.23;;;;;;;;;;5101013;28;20036;-76
2021/12/21 09:39:47;;;;;;;28.25;15.73;;;;;;;;;;5095483;28;20040;-75
2021/12/21 09:42:13;;;;;;;48.35;20.70;;;;;;;;;;5102221;28;20028;-75
2021/12/21 09:44:39;;;;;;;48.35;19.15;;;;;;;;;;5109166;28;20480;-75
2021/12/21 09:47:09;;;;;;;29.25;14.18;;;;;;;;;;5099712;28;20036;-75
2021/12/21 09:49:35;;;;;;;29.98;15.15;;;;;;;;;;5099421;28;20097;-75
2021/12/21 09:52:01;;;;;;;26.02;11.20;;;;;;;;;;5099670;28;20078;-75
2021/12/21 09:54:28;;;;;;;27.95;10.52;;;;;;;;;;5103937;28;20028;-75
2021/12/21 09:56:54;;;;;;;28.98;11.30;;;;;;;;;;5095244;28;20397;-75
2021/12/21 09:59:20;;;;;;;21.30;11.50;;;;;;;;;;5101821;28;20046;-75
2021/12/21 10:01:46;;;;;;;24.05;12.23;;;;;;;;;;5109106;28;20027;-75
2021/12/21 10:04:12;;;;;;;24.92;11.77;;;;;;;;;;5101753;28;20653;-74
2021/12/21 10:06:49;;;;;;;17.40;10.13;;;;;;;;;;5097588;28;20038;-75
2021/12/21 10:09:15;;;;;;;20.58;9.43;;;;;;;;;;5097326;28;20145;-75
2021/12/21 10:11:42;;;;;;;21.20;8.45;;;;;;;;;;5106088;28;20357;-75
2021/12/21 10:14:09;;;;;;;22.17;10.35;;;;;;;;;;5096585;28;20428;-75
2021/12/21 10:16:35;;;;;;;16.02;8.40;;;;;;;;;;5101426;28;20506;-75
2021/12/21 10:19:01;;;;;;;20.55;8.50;;;;;;;;;;5103234;28;20041;-74
2021/12/21 10:21:27;;;;;;;18.88;8.88;;;;;;;;;;5097681;28;20798;-75
2021/12/21 10:23:54;;;;;;;16.77;8.07;;;;;;;;;;5109262;28;20036;-75
2021/12/21 10:26:22;;;;;;;21.88;8.25;;;;;;;;;;5101289;28;20024;-75
2021/12/21 10:28:51;;;;;;;23.48;11.60;;;;;;;;;;5098508;28;20028;-75
2021/12/21 10:31:45;;;;;;;45.70;15.88;;;;;;;;;;5104205;28;20147;-75
2021/12/21 10:34:12;;;;;;;64.50;17.95;;;;;;;;;;5096041;28;20051;-75
2021/12/21 10:36:49;;;;;;;72.55;22.33;;;;;;;;;;5099467;28;20032;-76
2021/12/21 10:39:22;;;;;;;68.35;19.77;;;;;;;;;;5097499;28;20032;-76
2021/12/21 10:41:51;;;;;;;34.97;11.25;;;;;;;;;;5109775;28;20032;-75
2021/12/21 10:44:21;;;;;;;57.42;15.70;;;;;;;;;;5106583;28;20035;-76
2021/12/21 10:46:48;;;;;;;74.15;19.60;;;;;;;;;;5104823;28;20066;-74
2021/12/21 10:49:18;;;;;;;40.47;11.10;;;;;;;;;;5102414;28;20024;-76
2021/12/21 10:51:54;;;;;;;55.67;16.38;;;;;;;;;;5109949;28;20028;-75
2021/12/21 10:54:27;;;;;;;47.67;16.25;;;;;;;;;;5100730;28;20103;-75
2021/12/21 10:57:01;;;;;;;27.40;9.13;;;;;;;;;;5098949;28;20034;-75
2021/12/21 10:59:31;;;;;;;15.35;6.65;;;;;;;;;;5105285;28;20834;-76
2021/12/21 11:02:07;;;;;;;14.73;5.97;;;;;;;;;;5100002;28;20047;-76
2021/12/21 11:04:40;;;;;;;12.57;6.20;;;;;;;;;;5094317;28;20040;-76
2021/12/21 11:07:35;;;;;;;15.85;6.30;;;;;;;;;;5102416;28;20432;-76
2021/12/21 11:10:10;;;;;;;11.90;6.10;;;;;;;;;;5098417;28;20035;-76
2021/12/21 11:12:56;;;;;;;15.23;6.32;;;;;;;;;;5102796;28;20021;-76
2021/12/21 11:15:28;;;;;;;12.10;4.97;;;;;;;;;;5097616;28;20038;-75
2021/12/21 11:17:54;;;;;;;15.40;7.88;;;;;;;;;;5099351;28;20039;-77
2021/12/21 11:20:20;;;;;;;14.73;6.05;;;;;;;;;;5099775;28;20040;-75
2021/12/21 11:22:47;;;;;;;13.77;4.90;;;;;;;;;;5099331;28;20019;-75
2021/12/21 11:25:14;;;;;;;10.68;5.63;;;;;;;;;;5105251;28;20401;-74
2021/12/21 11:27:41;;;;;;;13.15;5.38;;;;;;;;;;5106566;28;20062;-75
2021/12/21 11:30:09;;;;;;;10.82;5.05;;;;;;;;;;5102575;28;20028;-75
2021/12/21 11:32:39;;;;;;;13.75;4.88;;;;;;;;;;5100736;28;20020;-74
2021/12/21 11:37:37;;;;;;;10.75;5.00;;;;;;;;;;5103971;28;20035;-75
2021/12/21 11:40:04;;;;;;;9.02;4.35;;;;;;;;;;5096010;28;20028;-75
2021/12/21 11:42:36;;;;;;;16.25;5.78;;;;;;;;;;5104451;28;20112;-75
2021/12/21 11:45:14;;;;;;;15.00;6.45;;;;;;;;;;5099764;28;20051;-75
2021/12/21 11:47:45;;;;;;;11.98;5.75;;;;;;;;;;5104751;28;20043;-75
2021/12/21 11:50:11;;;;;;;9.55;5.13;;;;;;;;;;5108855;28;20099;-74
2021/12/21 11:52:54;;;;;;;26.15;12.60;;;;;;;;;;5102078;28;20069;-75
2021/12/21 11:55:21;;;;;;;14.60;6.13;;;;;;;;;;5105412;28;20397;-75
2021/12/21 11:57:49;;;;;;;14.13;5.70;;;;;;;;;;5109271;28;20027;-75
2021/12/21 12:00:17;;;;;;;15.57;5.43;;;;;;;;;;5104354;28;20028;-75
2021/12/21 12:02:44;;;;;;;12.23;5.10;;;;;;;;;;5107748;28;20063;-76
2021/12/21 12:05:24;;;;;;;12.43;5.47;;;;;;;;;;5106776;28;20102;-75
2021/12/21 12:08:05;;;;;;;25.30;8.38;;;;;;;;;;5109969;28;20034;-76
2021/12/21 12:10:33;;;;;;;12.18;6.60;;;;;;;;;;5098310;28;20115;-76
2021/12/21 12:13:09;;;;;;;11.73;6.65;;;;;;;;;;5108872;28;20019;-76
2021/12/21 12:15:44;;;;;;;12.55;5.38;;;;;;;;;;5105432;28;20019;-75
2021/12/21 12:18:21;;;;;;;18.10;6.25;;;;;;;;;;5104215;28;20452;-75
2021/12/21 12:20:47;;;;;;;15.98;7.47;;;;;;;;;;5098425;28;20125;-75
2021/12/21 12:23:16;;;;;;;16.77;8.35;;;;;;;;;;5100957;28;20107;-75
2021/12/21 12:25:50;;;;;;;19.08;8.23;;;;;;;;;;5101412;28;20028;-75
2021/12/21 12:28:23;;;;;;;17.58;8.32;;;;;;;;;;5097778;28;20032;-75
2021/12/21 12:30:50;;;;;;;12.48;6.80;;;;;;;;;;5105769;28;20035;-75
2021/12/21 12:33:16;;;;;;;15.30;6.25;;;;;;;;;;5103723;28;20053;-75
2021/12/21 12:35:43;;;;;;;13.38;6.30;;;;;;;;;;5102609;28;20031;-76
2021/12/21 12:38:12;;;;;;;19.70;7.63;;;;;;;;;;5106661;28;20027;-75
2021/12/21 12:40:50;;;;;;;14.77;6.30;;;;;;;;;;5108335;28;20386;-75
2021/12/21 12:43:16;;;;;;;12.57;5.43;;;;;;;;;;5107698;27;20020;-75
2021/12/21 12:45:51;;;;;;;14.02;5.78;;;;;;;;;;5108003;28;20055;-75
2021/12/21 12:48:25;;;;;;;19.17;6.65;;;;;;;;;;5104304;28;20027;-75
2021/12/21 12:50:52;;;;;;;13.73;5.53;;;;;;;;;;5097580;28;20070;-75
2021/12/21 12:53:18;;;;;;;16.38;7.57;;;;;;;;;;5102804;28;20914;-75
2021/12/21 12:55:50;;;;;;;18.50;6.00;;;;;;;;;;5097442;28;20035;-76
2021/12/21 12:58:20;;;;;;;20.20;5.53;;;;;;;;;;5102319;28;20072;-76
2021/12/21 13:00:53;;;;;;;15.95;5.55;;;;;;;;;;5105073;28;20099;-75
2021/12/21 13:03:21;;;;;;;11.20;5.28;;;;;;;;;;5099407;28;20024;-75
2021/12/21 13:05:55;;;;;;;14.27;5.00;;;;;;;;;;5099052;28;20044;-75
2021/12/21 13:08:23;;;;;;;11.95;5.30;;;;;;;;;;5094868;28;20032;-75
2021/12/21 13:10:53;;;;;;;13.65;5.03;;;;;;;;;;5103546;28;20027;-75
2021/12/21 13:13:21;;;;;;;12.43;5.28;;;;;;;;;;5110497;28;20023;-74
2021/12/21 13:15:49;;;;;;;11.10;4.38;;;;;;;;;;5102548;28;20031;-75
2021/12/21 13:18:17;;;;;;;15.63;5.18;;;;;;;;;;5106078;28;20028;-76
2021/12/21 13:20:44;;;;;;;16.73;5.18;;;;;;;;;;5099037;28;20115;-74
2021/12/21 13:23:20;;;;;;;12.80;5.18;;;;;;;;;;5097311;28;20036;-75
2021/12/21 13:26:12;;;;;;;9.63;4.47;;;;;;;;;;5105301;28;20055;-75
2021/12/21 13:28:49;;;;;;;13.48;5.05;;;;;;;;;;5099964;28;20032;-75
2021/12/21 13:31:17;;;;;;;16.40;4.10;;;;;;;;;;5100964;28;20081;-75
2021/12/21 13:33:44;;;;;;;13.10;4.95;;;;;;;;;;5104008;28;20027;-75
2021/12/21 13:36:10;;;;;;;11.88;4.65;;;;;;;;;;5102172;28;20032;-75
2021/12/21 13:38:37;;;;;;;11.77;3.90;;;;;;;;;;5100327;28;20496;-75
2021/12/21 13:41:03;;;;;;;16.92;4.18;;;;;;;;;;5096875;28;20032;-75
2021/12/21 13:43:29;;;;;;;12.63;4.57;;;;;;;;;;5100213;28;20092;-75
2021/12/21 13:46:00;;;;;;;13.07;4.72;;;;;;;;;;5103646;28;20035;-75
2021/12/21 13:48:26;;;;;;;12.60;5.90;;;;;;;;;;5109705;28;20028;-75
2021/12/21 13:50:52;;;;;;;15.77;4.50;;;;;;;;;;5107511;28;20110;-75
2021/12/21 13:53:19;;;;;;;12.02;6.50;;;;;;;;;;5099836;28;20085;-75
2021/12/21 13:55:49;;;;;;;12.15;3.95;;;;;;;;;;5086388;28;20024;-75
2021/12/21 13:58:15;;;;;;;13.27;4.68;;;;;;;;;;5095922;28;20405;-76
2021/12/21 14:00:42;;;;;;;12.63;4.25;;;;;;;;;;5102153;28;20030;-76
2021/12/21 14:05:49;;;;;;;15.02;5.93;;;;;;;;;;5108636;28;20035;-75
2021/12/21 14:08:16;;;;;;;16.58;5.75;;;;;;;;;;5103329;28;20106;-76
2021/12/21 14:10:46;;;;;;;12.60;5.32;;;;;;;;;;5108178;28;20028;-75
2021/12/21 14:13:13;;;;;;;15.60;5.18;;;;;;;;;;5101600;28;20059;-75
2021/12/21 14:15:40;;;;;;;12.60;5.25;;;;;;;;;;5109101;28;20427;-75
2021/12/21 14:18:14;;;;;;;12.18;4.30;;;;;;;;;;5100159;28;20055;-75
2021/12/21 14:20:40;;;;;;;16.70;4.07;;;;;;;;;;5108278;28;20032;-74
2021/12/21 14:23:06;;;;;;;13.82;4.38;;;;;;;;;;5098635;28;20074;-75
2021/12/21 14:25:32;;;;;;;11.63;4.20;;;;;;;;;;5100480;28;20039;-75
2021/12/21 14:28:11;;;;;;;9.30;3.88;;;;;;;;;;5105560;28;20031;-74
2021/12/21 14:30:38;;;;;;;9.00;3.85;;;;;;;;;;5104989;28;20642;-75
2021/12/21 14:33:08;;;;;;;10.38;4.10;;;;;;;;;;5103185;28;20026;-75
2021/12/21 14:35:38;;;;;;;17.85;5.63;;;;;;;;;;5102857;28;20050;-75
2021/12/21 14:38:12;;;;;;;14.23;4.68;;;;;;;;;;5105388;28;20028;-75
2021/12/21 14:40:44;;;;;;;16.38;5.10;;;;;;;;;;5104086;28;20035;-75
2021/12/21 14:43:30;;;;;;;14.50;5.15;;;;;;;;;;5101067;28;20108;-75
2021/12/21 14:45:57;;;;;;;12.40;4.90;;;;;;;;;;5099527;28;20016;-75
2021/12/21 14:48:25;;;;;;;13.73;5.63;;;;;;;;;;5099416;28;20389;-75
2021/12/21 14:50:54;;;;;;;13.65;4.50;;;;;;;;;;5098427;28;20110;-75
2021/12/21 14:53:28;;;;;;;12.68;5.15;;;;;;;;;;5100639;28;20040;-75
2021/12/21 14:55:54;;;;;;;13.68;5.53;;;;;;;;;;5107634;28;20024;-74
2021/12/21 14:58:20;;;;;;;18.13;5.50;;;;;;;;;;5099803;28;20030;-75
2021/12/21 15:01:02;;;;;;;15.48;5.05;;;;;;;;;;5095046;28;20106;-75
2021/12/21 15:03:37;;;;;;;14.15;6.03;;;;;;;;;;5090954;28;20444;-75
2021/12/21 15:06:04;;;;;;;11.27;5.57;;;;;;;;;;5108533;28;20028;-75
2021/12/21 15:08:33;;;;;;;13.98;4.22;;;;;;;;;;5105301;28;20081;-74
2021/12/21 15:10:59;;;;;;;8.32;4.20;;;;;;;;;;5105750;28;20024;-74
2021/12/21 15:13:25;;;;;;;11.57;4.82;;;;;;;;;;5103939;28;20040;-74
2021/12/21 15:15:51;;;;;;;11.57;4.20;;;;;;;;;;5105879;28;20502;-74
2021/12/21 15:18:18;;;;;;;16.85;4.90;;;;;;;;;;5100092;28;20027;-74
2021/12/21 15:20:44;;;;;;;9.95;4.43;;;;;;;;;;5108631;28;20990;-74
2021/12/21 15:23:11;;;;;;;10.93;4.65;;;;;;;;;;5099313;28;20087;-75
2021/12/21 15:25:38;;;;;;;8.95;4.40;;;;;;;;;;5107224;28;20069;-74
2021/12/21 15:28:05;;;;;;;8.48;4.47;;;;;;;;;;5108974;27;20055;-74
2021/12/21 15:30:33;;;;;;;8.93;4.50;;;;;;;;;;5107144;28;20028;-75
2021/12/21 15:32:59;;;;;;;8.30;4.35;;;;;;;;;;5092992;28;20036;-75
2021/12/21 15:35:27;;;;;;;11.70;4.00;;;;;;;;;;5103700;28;20036;-75
2021/12/21 15:37:53;;;;;;;13.05;4.47;;;;;;;;;;5105874;28;20028;-75
2021/12/21 15:40:20;;;;;;;8.48;4.35;;;;;;;;;;5100127;28;20131;-75
2021/12/21 15:42:47;;;;;;;10.73;4.20;;;;;;;;;;5107478;28;20031;-75
2021/12/21 15:45:14;;;;;;;19.60;6.28;;;;;;;;;;5109857;28;20043;-76
2021/12/21 15:47:41;;;;;;;11.77;4.45;;;;;;;;;;5105477;28;20028;-76
2021/12/21 15:50:08;;;;;;;13.18;6.22;;;;;;;;;;5110909;28;20397;-75
2021/12/21 15:52:36;;;;;;;13.98;5.28;;;;;;;;;;5104918;28;20039;-75
2021/12/21 15:55:02;;;;;;;9.95;4.75;;;;;;;;;;5104233;28;20123;-75